KSPA/SPA METAR and TAF weather

Enter ICAO airport designator
Station Type Date Time Source
KSPA METAR 2020/09/27 02:35 UTC NOAA

KSPA 270235Z AUTO 00000KT 2 1/2SM BR CLR 15/15 A3004 RMK AO2 VIS 3/4V5


Station Type Date Time Source
KSPA Decoded METAR 2020/09/27 02:35 UTC NOAA

Spartanburg Memorial, SC, United States (KSPA) 34-55N 081-57W
Sep 26, 2020 - 10:35 PM EDT / 2020.09.27 0235 UTC
Wind: Calm:0
Visibility: 2 1/2 mile(s):0
Sky conditions: clear
Weather: mist
Temperature: 59 F (15 C)
Dew Point: 59 F (15 C)
Relative Humidity: 100%
Pressure (altimeter): 30.04 in. Hg (1017 hPa)
ob: KSPA 270235Z AUTO 00000KT 2 1/2SM BR CLR 15/15 A3004 RMK AO2 VIS 3/4V5
cycle: 2

Station Type Date Time Source
KSPA TAF UTC NOAA

Error!

Example: see airport list